Time;durP1;ratioP1;P1;durP2;ratioP2;P2;SDS_P1;SDS_P2;PMS_P1;PMS_P2;Temp;Humidity;BMP_temperature;BMP_pressure;BME280_temperature;BME280_humidity;BME280_pressure;Samples;Min_cycle;Max_cycle;Signal;HPM_P1;HPM_P2
2023/10/09 00:01:12;;;;;;;12.80;10.17;;;11.00;92.10;;;;;;4994374;28;20260;-90
2023/10/09 00:03:38;;;;;;;14.47;10.47;;;11.00;92.20;;;;;;4994381;28;20626;-89
2023/10/09 00:06:05;;;;;;;17.97;16.40;;;10.90;92.30;;;;;;4993087;28;20581;-91
2023/10/09 00:08:30;;;;;;;19.03;17.20;;;11.00;92.30;;;;;;4994360;28;20200;-91
2023/10/09 00:11:14;;;;;;;18.50;16.83;;;10.90;92.30;;;;;;4994437;28;20554;-89
2023/10/09 00:13:48;;;;;;;18.50;16.80;;;10.90;92.30;;;;;;4994326;28;20155;-90
2023/10/09 00:16:23;;;;;;;17.90;16.20;;;10.90;92.30;;;;;;4993345;28;20217;-90
2023/10/09 00:18:49;;;;;;;17.30;16.10;;;10.90;92.30;;;;;;4994140;28;20177;-90
2023/10/09 00:21:21;;;;;;;18.60;17.00;;;10.80;92.30;;;;;;4992907;28;20582;-90
2023/10/09 00:23:53;;;;;;;18.80;16.40;;;10.80;92.20;;;;;;4994123;28;20150;-89
2023/10/09 00:26:22;;;;;;;20.97;17.83;;;10.80;92.30;;;;;;4993374;28;20163;-90
2023/10/09 00:28:51;;;;;;;19.47;17.63;;;10.80;92.30;;;;;;4992873;28;20175;-91
2023/10/09 00:31:38;;;;;;;23.90;16.47;;;10.80;92.30;;;;;;4992562;28;20189;-90
2023/10/09 00:34:05;;;;;;;19.17;17.57;;;10.80;92.40;;;;;;4992708;28;20206;-90
2023/10/09 00:36:32;;;;;;;18.17;16.63;;;10.80;92.40;;;;;;4992931;28;20224;-90
2023/10/09 00:39:11;;;;;;;15.57;10.50;;;10.80;92.30;;;;;;4992830;28;20174;-90
2023/10/09 00:41:36;;;;;;;12.00;10.90;;;10.80;92.30;;;;;;4994162;28;20723;-90
2023/10/09 00:44:07;;;;;;;18.47;16.87;;;10.80;92.30;;;;;;4993867;28;20305;-89
2023/10/09 00:46:34;;;;;;;19.73;18.13;;;10.70;92.30;;;;;;4994187;28;20186;-90
2023/10/09 00:49:01;;;;;;;12.17;10.93;;;10.70;92.30;;;;;;4992643;28;20181;-90
2023/10/09 00:51:34;;;;;;;11.23;10.37;;;10.70;92.30;;;;;;4993947;28;20174;-90
2023/10/09 00:54:06;;;;;;;20.33;17.93;;;10.70;92.30;;;;;;4992661;28;20221;-90
2023/10/09 00:56:39;;;;;;;23.40;18.13;;;10.70;92.30;;;;;;4994129;28;20186;-90
2023/10/09 00:59:09;;;;;;;20.80;19.20;;;10.60;92.30;;;;;;4992773;28;20170;-90
2023/10/09 01:01:40;;;;;;;11.87;10.90;;;10.70;92.40;;;;;;4992556;28;20201;-90
2023/10/09 01:04:17;;;;;;;11.60;10.57;;;10.60;92.40;;;;;;4993849;28;20559;-90
2023/10/09 01:07:04;;;;;;;11.50;10.60;;;10.60;92.40;;;;;;4992577;28;20250;-90
2023/10/09 01:09:36;;;;;;;12.50;11.10;;;10.60;92.40;;;;;;4992703;28;20549;-90
2023/10/09 01:14:28;;;;;;;11.47;10.37;;;10.60;92.40;;;;;;4994193;28;20233;-90
2023/10/09 01:16:54;;;;;;;12.83;11.50;;;10.60;92.40;;;;;;4992717;28;20610;-90
2023/10/09 01:19:23;;;;;;;13.43;11.60;;;10.60;92.30;;;;;;4994187;28;20170;-90
2023/10/09 01:21:51;;;;;;;12.50;11.30;;;10.60;92.40;;;;;;4992612;28;20201;-90
2023/10/09 01:24:19;;;;;;;12.33;11.23;;;10.60;92.40;;;;;;4993588;28;20551;-90
2023/10/09 01:26:49;;;;;;;17.07;11.57;;;10.60;92.40;;;;;;4992480;28;20265;-90
2023/10/09 01:29:20;;;;;;;12.97;11.60;;;10.60;92.50;;;;;;4992546;28;20232;-91
2023/10/09 01:31:52;;;;;;;14.00;11.20;;;10.60;92.50;;;;;;4992394;28;20186;-90
2023/10/09 01:34:41;;;;;;;12.30;11.00;;;10.60;92.50;;;;;;4993475;28;20198;-90
2023/10/09 01:37:17;;;;;;;12.27;11.27;;;10.60;92.50;;;;;;4992582;28;20193;-89
2023/10/09 01:39:44;;;;;;;12.20;11.07;;;10.60;92.60;;;;;;4994193;28;20165;-90
2023/10/09 01:42:10;;;;;;;12.37;11.10;;;10.70;92.60;;;;;;4993671;28;20747;-90
2023/10/09 01:44:42;;;;;;;12.10;11.10;;;10.70;92.70;;;;;;4995984;28;20193;-90
2023/10/09 01:47:09;;;;;;;12.23;11.30;;;10.70;92.70;;;;;;4997177;28;20161;-90
2023/10/09 01:49:37;;;;;;;12.80;11.70;;;10.70;92.70;;;;;;4995792;28;20189;-90
2023/10/09 01:52:09;;;;;;;12.93;11.60;;;10.70;92.70;;;;;;4995848;28;20241;-90
2023/10/09 01:54:40;;;;;;;12.43;11.20;;;10.70;92.80;;;;;;4995676;28;20575;-90
2023/10/09 01:57:12;;;;;;;13.37;11.63;;;10.70;92.80;;;;;;4995747;28;20181;-90
2023/10/09 01:59:47;;;;;;;12.17;10.93;;;10.60;92.90;;;;;;4996891;28;20202;-90
2023/10/09 02:02:25;;;;;;;13.73;12.47;;;10.70;93.00;;;;;;4995685;28;20205;-90
2023/10/09 02:07:40;;;;;;;21.50;19.90;;;10.60;93.10;;;;;;4996975;28;20158;-90
2023/10/09 02:13:09;;;;;;;20.07;18.67;;;10.60;93.30;;;;;;4997515;28;20166;-91
2023/10/09 02:18:16;;;;;;;20.43;18.83;;;10.60;93.40;;;;;;4996876;28;20173;-91
2023/10/09 02:20:45;;;;;;;21.17;19.47;;;10.60;93.40;;;;;;4996164;28;20268;-90
2023/10/09 02:23:13;;;;;;;20.13;18.47;;;10.60;93.50;;;;;;4995251;28;20264;-90
2023/10/09 02:25:43;;;;;;;19.50;18.07;;;10.60;93.50;;;;;;4995091;28;20671;-89
2023/10/09 02:28:09;;;;;;;21.77;20.00;;;10.60;93.60;;;;;;4995524;28;20650;-90
2023/10/09 02:30:41;;;;;;;21.03;19.33;;;10.60;93.60;;;;;;4996413;28;20221;-90
2023/10/09 02:33:08;;;;;;;21.37;19.60;;;10.60;93.60;;;;;;4995455;28;20175;-90
2023/10/09 02:35:42;;;;;;;23.93;22.13;;;10.50;93.70;;;;;;4995060;28;20198;-90
2023/10/09 02:38:10;;;;;;;13.87;12.47;;;10.50;93.70;;;;;;4995138;28;20182;-90
2023/10/09 02:43:20;;;;;;;20.87;19.17;;;10.60;93.80;;;;;;4996598;28;20185;-90
2023/10/09 02:45:50;;;;;;;21.80;19.80;;;10.50;93.80;;;;;;4995930;28;20226;-90
2023/10/09 02:48:26;;;;;;;24.30;22.50;;;10.50;93.80;;;;;;4995833;28;20178;-91
2023/10/09 02:50:51;;;;;;;13.90;12.33;;;10.50;93.80;;;;;;4995887;28;20170;-90
2023/10/09 02:53:29;;;;;;;13.33;11.93;;;10.50;93.80;;;;;;4996131;28;20178;-91
2023/10/09 02:56:12;;;;;;;21.80;20.07;;;10.40;93.80;;;;;;4994705;28;20225;-90
2023/10/09 02:58:40;;;;;;;22.13;20.40;;;10.50;93.80;;;;;;4994849;28;20184;-91
2023/10/09 03:01:10;;;;;;;13.00;12.00;;;10.40;93.80;;;;;;4994779;28;20202;-90
2023/10/09 03:03:38;;;;;;;13.67;12.57;;;10.50;93.80;;;;;;4996334;28;20235;-91
2023/10/09 03:06:10;;;;;;;12.97;11.90;;;10.40;93.80;;;;;;4995983;28;20217;-90
2023/10/09 03:08:37;;;;;;;13.93;12.63;;;10.50;93.80;;;;;;4994678;28;20178;-90
2023/10/09 03:11:02;;;;;;;13.33;12.13;;;10.50;93.80;;;;;;4994470;28;20189;-90
2023/10/09 03:13:28;;;;;;;13.80;12.60;;;10.40;93.80;;;;;;4995977;28;20182;-90
2023/10/09 03:15:54;;;;;;;13.10;12.07;;;10.40;93.80;;;;;;4995576;28;20204;-90
2023/10/09 03:18:20;;;;;;;12.43;11.33;;;10.40;93.70;;;;;;4995778;28;20556;-90
2023/10/09 03:20:46;;;;;;;12.87;11.57;;;10.30;93.70;;;;;;4995883;28;20634;-90
2023/10/09 03:23:14;;;;;;;13.10;11.80;;;10.40;93.70;;;;;;4995574;28;20174;-91
2023/10/09 03:25:40;;;;;;;13.53;12.23;;;10.30;93.60;;;;;;4994226;28;20580;-90
2023/10/09 03:28:06;;;;;;;13.20;12.03;;;10.30;93.60;;;;;;4994206;28;20178;-90
2023/10/09 03:30:33;;;;;;;13.87;12.50;;;10.30;93.60;;;;;;4994053;28;20175;-90
2023/10/09 03:33:00;;;;;;;13.20;12.00;;;10.30;93.60;;;;;;4994168;28;20170;-90
2023/10/09 03:35:33;;;;;;;17.03;11.70;;;10.40;93.60;;;;;;4993837;28;20551;-91
2023/10/09 03:38:18;;;;;;;13.80;12.40;;;10.40;93.50;;;;;;4995629;28;20182;-91
2023/10/09 03:40:47;;;;;;;13.53;12.53;;;10.40;93.50;;;;;;4993890;28;20181;-90
2023/10/09 03:43:16;;;;;;;13.57;12.27;;;10.40;93.50;;;;;;4993914;28;20178;-90
2023/10/09 03:45:57;;;;;;;13.37;12.23;;;10.40;93.50;;;;;;4995287;28;20211;-91
2023/10/09 03:48:46;;;;;;;13.53;12.20;;;10.40;93.50;;;;;;4993931;28;20721;-90
2023/10/09 03:51:09;;;;;;;13.47;12.23;;;10.40;93.40;;;;;;4994876;28;20202;-91
2023/10/09 03:53:39;;;;;;;13.27;12.23;;;10.30;93.40;;;;;;4995021;28;20264;-90
2023/10/09 03:56:11;;;;;;;13.13;12.00;;;10.30;93.40;;;;;;4993918;28;20198;-91
2023/10/09 03:58:39;;;;;;;13.70;12.40;;;10.30;93.40;;;;;;4994961;28;20216;-90
2023/10/09 04:01:09;;;;;;;15.03;12.87;;;10.30;93.30;;;;;;4994483;28;20204;-91
2023/10/09 04:03:36;;;;;;;22.33;20.27;;;10.30;93.30;;;;;;4994649;28;20665;-90
2023/10/09 04:06:03;;;;;;;22.50;20.47;;;10.30;93.30;;;;;;4993036;28;20190;-90
2023/10/09 04:08:29;;;;;;;22.10;20.20;;;10.30;93.20;;;;;;4993555;28;20265;-90
2023/10/09 04:11:03;;;;;;;21.23;19.53;;;10.30;93.30;;;;;;4993543;28;20261;-91
2023/10/09 04:13:34;;;;;;;19.80;18.30;;;10.30;93.20;;;;;;4994590;28;20181;-90
2023/10/09 04:16:33;;;;;;;19.63;18.10;;;10.30;93.20;;;;;;4994614;28;20216;-90
2023/10/09 04:18:49;;;;;;;19.87;18.30;;;10.30;93.20;;;;;;4994448;28;20564;-91
2023/10/09 04:21:33;;;;;;;18.77;17.47;;;10.30;93.10;;;;;;4994437;28;20594;-90
2023/10/09 04:26:44;;;;;;;18.20;16.60;;;10.30;93.10;;;;;;4994731;28;20233;-90
2023/10/09 04:29:10;;;;;;;19.30;17.90;;;10.30;93.00;;;;;;4994552;28;20157;-90
2023/10/09 04:31:37;;;;;;;20.00;18.50;;;10.30;92.90;;;;;;4994609;28;20177;-90
2023/10/09 04:37:00;;;;;;;13.17;12.20;;;10.30;92.90;;;;;;4994852;28;20169;-90
2023/10/09 04:44:39;;;;;;;20.77;19.20;;;10.30;92.90;;;;;;4994515;28;20205;-90
2023/10/09 04:49:49;;;;;;;13.90;12.77;;;10.30;92.70;;;;;;4994759;28;20565;-90
2023/10/09 04:52:51;;;;;;;13.63;12.40;;;10.30;92.70;;;;;;4992776;28;20188;-90
2023/10/09 04:55:19;;;;;;;21.20;19.60;;;10.30;92.50;;;;;;4993829;28;20203;-90
2023/10/09 04:58:00;;;;;;;21.80;20.30;;;10.30;92.40;;;;;;4992870;28;20174;-90
2023/10/09 05:02:56;;;;;;;13.97;12.60;;;10.20;92.30;;;;;;4993853;28;20198;-90
2023/10/09 05:08:21;;;;;;;15.83;13.53;;;10.30;92.20;;;;;;4994291;28;20678;-90
2023/10/09 05:16:33;;;;;;;14.10;13.00;;;10.20;92.00;;;;;;4993978;28;20204;-91
2023/10/09 05:19:28;;;;;;;13.87;12.43;;;10.20;91.90;;;;;;4994471;28;20171;-90
2023/10/09 05:21:58;;;;;;;14.40;13.37;;;10.20;91.90;;;;;;4997561;28;20204;-90
2023/10/09 05:24:26;;;;;;;17.67;15.80;;;10.20;91.90;;;;;;4997977;28;20186;-90
2023/10/09 05:26:52;;;;;;;15.23;13.90;;;10.20;91.90;;;;;;4997809;28;20169;-89
2023/10/09 05:29:48;;;;;;;15.57;14.07;;;10.20;92.00;;;;;;4997465;28;20253;-91
2023/10/09 05:37:43;;;;;;;14.87;13.50;;;10.20;92.20;;;;;;4997614;28;20173;-91
2023/10/09 05:42:46;;;;;;;16.97;13.83;;;10.10;92.40;;;;;;4997354;28;20198;-91
2023/10/09 05:50:50;;;;;;;16.27;14.77;;;10.00;92.50;;;;;;4997847;28;20189;-90
2023/10/09 06:01:40;;;;;;;15.80;14.50;;;10.10;92.80;;;;;;4998014;28;20189;-91
2023/10/09 06:04:20;;;;;;;24.80;22.80;;;10.20;93.00;;;;;;4996945;28;20241;-91
2023/10/09 06:06:55;;;;;;;24.60;22.73;;;10.20;93.00;;;;;;4997006;28;20166;-91
2023/10/09 06:11:49;;;;;;;22.93;21.13;;;10.20;93.20;;;;;;4996882;28;20330;-90
2023/10/09 06:14:49;;;;;;;23.07;21.43;;;10.20;93.20;;;;;;4996213;28;20205;-91
2023/10/09 06:19:43;;;;;;;22.37;20.77;;;10.20;93.20;;;;;;4997056;28;20174;-91
2023/10/09 06:27:38;;;;;;;27.20;25.23;;;10.20;93.30;;;;;;4996941;28;20197;-91
2023/10/09 06:30:14;;;;;;;26.30;24.27;;;10.20;93.40;;;;;;4995845;28;20170;-92
2023/10/09 06:32:50;;;;;;;27.43;25.20;;;10.20;93.40;;;;;;4996935;28;20224;-91
2023/10/09 06:35:17;;;;;;;17.87;16.17;;;10.20;93.40;;;;;;4996455;28;20251;-91
2023/10/09 06:48:44;;;;;;;18.17;16.77;;;10.20;93.60;;;;;;4996544;28;20166;-91
2023/10/09 06:59:15;;;;;;;18.77;17.37;;;10.20;93.70;;;;;;4997087;28;20223;-91
2023/10/09 07:01:46;;;;;;;18.47;16.87;;;10.10;93.80;;;;;;4995815;28;20209;-90
2023/10/09 07:04:19;;;;;;;17.70;15.90;;;10.20;93.90;;;;;;4995656;28;20186;-90
2023/10/09 07:06:48;;;;;;;18.10;16.37;;;10.20;94.00;;;;;;4994583;28;20177;-90
2023/10/09 07:25:14;;;;;;;18.80;17.50;;;10.20;94.10;;;;;;4995862;28;20202;-90
2023/10/09 07:27:43;;;;;;;18.63;17.17;;;10.20;94.20;;;;;;4994133;28;20170;-90
2023/10/09 07:33:05;;;;;;;17.27;16.07;;;10.20;94.30;;;;;;4995258;28;20520;-92
2023/10/09 07:35:46;;;;;;;18.97;17.67;;;10.30;94.30;;;;;;4995193;28;20678;-91
2023/10/09 07:38:21;;;;;;;18.13;16.77;;;10.30;94.30;;;;;;4994036;28;20184;-91
2023/10/09 07:43:45;;;;;;;17.90;16.40;;;10.30;94.30;;;;;;4995391;28;20158;-91
2023/10/09 07:49:00;;;;;;;18.47;17.13;;;10.30;94.40;;;;;;4995336;28;20216;-89
2023/10/09 07:51:32;;;;;;;18.53;17.03;;;10.40;94.40;;;;;;4993744;28;20185;-91
2023/10/09 07:54:07;;;;;;;17.70;16.40;;;10.40;94.40;;;;;;4994579;28;20633;-91
2023/10/09 07:56:41;;;;;;;18.23;16.67;;;10.40;94.40;;;;;;4994891;28;20217;-89
2023/10/09 07:59:10;;;;;;;21.40;19.87;;;10.40;94.40;;;;;;4993944;28;20188;-91
2023/10/09 08:01:53;;;;;;;24.83;23.20;;;10.40;94.60;;;;;;4995691;28;20213;-90
2023/10/09 08:07:19;;;;;;;22.77;21.10;;;10.50;94.60;;;;;;5019552;28;20158;-88
2023/10/09 08:11:31;;;;;;;24.00;22.30;;;10.50;94.70;;;;;;5002188;28;20664;-91
2023/10/09 08:17:53;;;;;;;23.87;22.37;;;10.60;94.80;;;;;;4998822;28;20166;-91
2023/10/09 08:20:25;;;;;;;22.37;20.97;;;10.60;94.90;;;;;;4994246;28;20531;-92
2023/10/09 08:22:52;;;;;;;23.67;21.90;;;10.60;95.00;;;;;;4995599;28;20344;-91
2023/10/09 08:25:28;;;;;;;22.87;21.37;;;10.70;95.00;;;;;;4996373;28;20186;-91
2023/10/09 08:28:29;;;;;;;23.97;22.27;;;10.70;95.10;;;;;;4997625;28;20188;-91
2023/10/09 08:35:55;;;;;;;16.67;15.37;;;10.70;95.20;;;;;;4996422;28;20196;-91
2023/10/09 08:38:24;;;;;;;21.40;19.83;;;10.80;95.20;;;;;;4997184;28;20170;-90
2023/10/09 08:40:51;;;;;;;22.30;20.67;;;10.80;95.20;;;;;;5006322;28;20174;-92
2023/10/09 08:43:17;;;;;;;19.37;17.77;;;10.90;95.30;;;;;;5005406;28;20166;-92
2023/10/09 08:45:53;;;;;;;18.10;16.60;;;10.80;95.20;;;;;;4999836;28;20212;-92
2023/10/09 08:48:26;;;;;;;17.77;16.17;;;10.90;95.40;;;;;;4996541;28;20158;-91
2023/10/09 08:50:54;;;;;;;25.00;23.30;;;10.90;95.30;;;;;;4993402;28;20190;-91
2023/10/09 08:53:20;;;;;;;25.23;23.53;;;11.00;95.30;;;;;;4994253;28;20198;-91
2023/10/09 08:55:46;;;;;;;18.13;16.83;;;10.90;95.30;;;;;;4994702;28;20244;-91
2023/10/09 09:01:00;;;;;;;17.77;16.47;;;11.00;95.30;;;;;;4994599;28;20304;-90
2023/10/09 09:03:43;;;;;;;17.17;15.97;;;11.00;95.30;;;;;;4995412;28;20309;-93
2023/10/09 09:06:09;;;;;;;17.97;16.77;;;10.90;95.30;;;;;;4994802;28;20161;-91
2023/10/09 09:08:37;;;;;;;18.90;17.60;;;11.00;95.30;;;;;;4992725;28;20584;-89
2023/10/09 09:11:11;;;;;;;19.10;17.90;;;11.00;95.40;;;;;;4993839;28;20178;-90
2023/10/09 09:13:48;;;;;;;19.00;17.53;;;11.10;95.40;;;;;;4993496;28;20188;-91
2023/10/09 09:16:21;;;;;;;19.77;18.43;;;11.10;95.30;;;;;;5010724;28;20174;-94
2023/10/09 09:19:00;;;;;;;19.00;17.57;;;11.10;95.30;;;;;;5018781;28;20158;-95
2023/10/09 09:21:27;;;;;;;18.83;17.63;;;11.20;95.40;;;;;;5018647;28;20211;-95
2023/10/09 09:23:59;;;;;;;18.60;17.43;;;11.20;95.40;;;;;;5018617;28;20217;-95
2023/10/09 09:26:38;;;;;;;19.77;18.47;;;11.20;95.30;;;;;;5018652;28;20174;-95
2023/10/09 09:29:06;;;;;;;19.87;18.63;;;11.30;95.30;;;;;;5018724;28;20154;-94
2023/10/09 09:31:38;;;;;;;19.90;18.53;;;11.30;95.30;;;;;;5018620;28;20150;-94
2023/10/09 09:34:16;;;;;;;20.03;18.73;;;11.30;95.30;;;;;;5018582;28;20182;-92
2023/10/09 09:37:50;;;;;;;19.93;18.43;;;11.20;95.30;;;;;;5018548;28;20193;-95
2023/10/09 09:40:29;;;;;;;19.53;18.33;;;11.40;95.40;;;;;;5014313;23;20250;-94
2023/10/09 09:43:04;;;;;;;20.87;19.40;;;11.50;95.40;;;;;;4999497;28;20214;-95
2023/10/09 09:45:32;;;;;;;20.70;19.30;;;11.50;95.30;;;;;;4998789;28;20201;-93
2023/10/09 09:48:05;;;;;;;20.23;18.90;;;11.50;95.30;;;;;;4998891;28;20167;-96
2023/10/09 09:50:38;;;;;;;18.90;17.63;;;11.60;95.30;;;;;;5027579;23;20270;-94
2023/10/09 09:53:08;;;;;;;21.17;19.73;;;11.60;95.30;;;;;;5000191;28;20207;-93
2023/10/09 09:55:35;;;;;;;20.20;18.90;;;11.60;95.30;;;;;;5000073;28;20147;-94
2023/10/09 09:58:06;;;;;;;21.10;19.70;;;11.70;95.30;;;;;;5000038;28;20139;-94
2023/10/09 10:00:43;;;;;;;21.03;19.63;;;11.70;95.30;;;;;;4999223;28;20206;-95
2023/10/09 10:03:22;;;;;;;28.70;26.97;;;11.70;95.30;;;;;;4998034;28;20170;-95
2023/10/09 10:05:50;;;;;;;31.67;29.57;;;11.80;95.30;;;;;;5001463;28;20191;-94
2023/10/09 10:08:21;;;;;;;30.13;28.27;;;11.80;95.30;;;;;;5001882;28;20159;-94
2023/10/09 10:11:04;;;;;;;31.20;29.20;;;11.80;95.30;;;;;;5001906;28;20250;-94
2023/10/09 10:13:42;;;;;;;32.30;30.20;;;11.90;95.30;;;;;;4997793;28;20181;-92
2023/10/09 10:24:28;;;;;;;32.70;30.60;;;12.00;95.30;;;;;;5002390;28;20250;-91
2023/10/09 10:27:09;;;;;;;32.37;30.17;;;12.10;95.40;;;;;;5001747;28;20163;-90
2023/10/09 10:29:38;;;;;;;32.93;30.87;;;12.10;95.30;;;;;;5001777;28;20159;-91
2023/10/09 10:32:08;;;;;;;22.57;21.17;;;12.00;95.20;;;;;;5001786;28;20159;-90
2023/10/09 10:34:57;;;;;;;21.30;20.00;;;12.00;95.30;;;;;;5001670;28;20186;-91
2023/10/09 10:37:48;;;;;;;31.47;29.57;;;12.20;95.40;;;;;;5001748;28;20179;-89
2023/10/09 10:40:38;;;;;;;29.93;28.00;;;12.20;95.30;;;;;;5002212;28;20159;-90
2023/10/09 10:43:13;;;;;;;28.80;27.00;;;12.10;95.30;;;;;;5001519;28;20223;-91
2023/10/09 10:45:45;;;;;;;21.87;20.47;;;12.30;95.50;;;;;;5001547;28;20233;-90
2023/10/09 10:48:37;;;;;;;21.80;20.40;;;12.30;95.40;;;;;;5001542;28;20167;-91
2023/10/09 10:51:03;;;;;;;28.40;26.70;;;12.30;95.50;;;;;;5001482;28;20177;-89
2023/10/09 10:53:34;;;;;;;30.17;28.37;;;12.30;95.50;;;;;;5001407;28;20171;-90
2023/10/09 11:01:50;;;;;;;21.73;20.33;;;12.40;95.60;;;;;;5001742;28;20217;-90
2023/10/09 11:12:42;;;;;;;23.17;21.63;;;12.60;95.60;;;;;;5001628;28;20152;-89
2023/10/09 11:15:29;;;;;;;23.70;22.17;;;12.70;95.60;;;;;;5000628;28;20198;-90
2023/10/09 11:18:07;;;;;;;23.33;21.83;;;12.70;95.60;;;;;;5001060;28;20276;-90
2023/10/09 11:20:39;;;;;;;23.30;21.63;;;12.80;95.70;;;;;;5001483;28;20174;-89
2023/10/09 11:25:49;;;;;;;25.57;23.73;;;12.80;95.70;;;;;;5000873;28;20179;-90
2023/10/09 11:28:29;;;;;;;25.53;23.80;;;12.80;95.70;;;;;;5000847;28;20166;-90
2023/10/09 11:31:18;;;;;;;25.93;24.07;;;12.80;95.70;;;;;;4999799;28;20251;-91
2023/10/09 11:33:44;;;;;;;26.20;24.13;;;12.90;95.70;;;;;;4980901;28;20179;-91
2023/10/09 11:36:09;;;;;;;27.10;25.07;;;13.10;95.80;;;;;;4977654;28;20178;-91
2023/10/09 11:38:36;;;;;;;26.93;24.93;;;13.20;95.80;;;;;;4975656;28;20522;-91
2023/10/09 11:41:19;;;;;;;28.07;25.70;;;13.20;95.80;;;;;;4976655;28;20627;-93
2023/10/09 11:43:54;;;;;;;28.43;26.13;;;13.30;95.80;;;;;;4974971;28;20179;-91
2023/10/09 11:49:26;;;;;;;30.23;27.73;;;13.50;95.90;;;;;;4976143;28;20253;-90
2023/10/09 11:52:35;;;;;;;28.55;26.25;;;13.80;96.00;;;;;;4974256;28;20179;-89
2023/10/09 11:54:56;;;;;;;28.85;26.30;;;13.90;96.00;;;;;;4975103;28;20693;-90
2023/10/09 11:57:30;;;;;;;30.75;28.08;;;13.70;95.70;;;;;;4975248;28;20175;-90
2023/10/09 11:59:57;;;;;;;30.02;27.55;;;13.70;95.80;;;;;;4974094;28;20653;-90
2023/10/09 12:02:23;;;;;;;30.02;27.27;;;13.80;95.80;;;;;;4974741;28;20206;-91
2023/10/09 12:04:48;;;;;;;31.10;28.52;;;13.50;95.60;;;;;;4983580;28;20225;-91
2023/10/09 12:07:14;;;;;;;29.15;26.30;;;13.50;95.70;;;;;;4974844;28;20595;-90
2023/10/09 12:09:49;;;;;;;29.85;27.45;;;13.60;95.80;;;;;;4975088;28;20221;-90
2023/10/09 12:12:14;;;;;;;30.85;28.25;;;13.80;95.70;;;;;;4974098;28;20198;-91
2023/10/09 12:14:40;;;;;;;37.30;34.50;;;13.90;95.70;;;;;;4973809;28;20206;-91
2023/10/09 12:17:09;;;;;;;36.13;33.30;;;13.90;95.70;;;;;;4973791;28;20248;-90
2023/10/09 12:19:36;;;;;;;35.17;32.47;;;14.20;95.90;;;;;;4975184;28;20258;-91
2023/10/09 12:22:06;;;;;;;34.47;31.88;;;14.30;95.70;;;;;;4975195;28;20194;-91
2023/10/09 12:24:33;;;;;;;34.40;31.75;;;14.30;95.70;;;;;;4973837;28;20229;-91
2023/10/09 12:26:59;;;;;;;35.45;32.85;;;14.30;95.60;;;;;;4975636;28;20178;-90
2023/10/09 12:29:29;;;;;;;33.63;31.15;;;14.30;95.60;;;;;;4973788;28;20178;-91
2023/10/09 12:31:58;;;;;;;34.70;32.10;;;14.40;95.70;;;;;;4975284;28;20166;-91
2023/10/09 12:34:26;;;;;;;36.55;33.55;;;14.50;95.70;;;;;;4973732;28;20209;-91
2023/10/09 12:37:00;;;;;;;33.35;31.05;;;14.70;95.70;;;;;;4973889;28;20190;-91
2023/10/09 12:39:31;;;;;;;34.83;31.95;;;14.50;95.50;;;;;;4975254;28;20177;-91
2023/10/09 12:41:58;;;;;;;27.70;25.45;;;14.70;95.60;;;;;;4975174;28;20210;-91
2023/10/09 12:44:27;;;;;;;28.27;26.13;;;14.80;95.60;;;;;;4975066;28;20198;-91
2023/10/09 12:46:52;;;;;;;34.28;31.88;;;14.70;95.40;;;;;;4973770;28;20183;-91
2023/10/09 12:49:25;;;;;;;35.45;32.65;;;14.80;95.40;;;;;;4974742;28;20195;-91
2023/10/09 12:51:53;;;;;;;33.45;30.95;;;14.80;95.40;;;;;;4974952;28;20612;-92
2023/10/09 12:54:20;;;;;;;27.02;24.88;;;14.80;95.30;;;;;;4973325;28;20233;-90
2023/10/09 12:56:48;;;;;;;28.25;26.08;;;14.70;95.10;;;;;;4973373;28;20178;-91
2023/10/09 12:59:14;;;;;;;29.70;27.58;;;14.60;95.00;;;;;;4973514;28;20174;-91
2023/10/09 13:01:44;;;;;;;30.25;28.02;;;14.60;95.00;;;;;;4973352;28;20214;-91
2023/10/09 13:04:11;;;;;;;32.53;30.17;;;14.60;94.90;;;;;;4973540;28;20194;-91
2023/10/09 13:06:43;;;;;;;34.08;31.27;;;14.60;94.90;;;;;;4973166;28;20609;-90
2023/10/09 13:09:15;;;;;;;32.92;30.73;;;14.60;94.80;;;;;;4973196;28;20179;-91
2023/10/09 13:11:42;;;;;;;32.88;30.67;;;14.60;94.70;;;;;;4974684;28;20159;-91
2023/10/09 13:14:17;;;;;;;32.65;30.45;;;14.50;94.70;;;;;;4973646;28;20199;-91
2023/10/09 13:16:43;;;;;;;34.83;32.33;;;14.60;94.70;;;;;;4973621;28;20182;-90
2023/10/09 13:19:11;;;;;;;33.65;31.45;;;14.50;94.70;;;;;;4973095;28;20197;-90
2023/10/09 13:21:40;;;;;;;33.78;31.52;;;14.50;94.70;;;;;;4972961;28;20698;-91
2023/10/09 13:24:12;;;;;;;33.00;30.80;;;14.60;94.70;;;;;;4973033;28;20620;-91
2023/10/09 13:26:39;;;;;;;33.05;30.75;;;14.70;94.80;;;;;;4974156;28;20159;-91
2023/10/09 13:29:08;;;;;;;31.65;29.55;;;14.80;94.80;;;;;;4973849;28;20207;-89
2023/10/09 13:31:37;;;;;;;31.92;29.73;;;14.80;94.70;;;;;;4973356;28;20665;-91
2023/10/09 13:34:06;;;;;;;32.17;29.98;;;14.90;94.80;;;;;;4974360;28;20175;-91
2023/10/09 13:36:32;;;;;;;31.73;29.52;;;14.90;94.80;;;;;;4972798;28;20539;-90
2023/10/09 13:41:57;;;;;;;30.73;28.63;;;15.10;94.70;;;;;;4977887;28;20217;-92
2023/10/09 13:44:27;;;;;;;30.33;28.10;;;15.10;94.70;;;;;;4976463;28;20245;-91
2023/10/09 13:47:05;;;;;;;29.70;27.60;;;15.10;94.70;;;;;;4978346;28;20185;-91
2023/10/09 13:49:31;;;;;;;31.13;29.02;;;15.10;94.80;;;;;;4979840;28;20189;-91
2023/10/09 13:51:58;;;;;;;30.55;28.45;;;15.10;94.70;;;;;;4977713;28;20549;-92
2023/10/09 13:56:58;;;;;;;30.67;28.27;;;15.30;94.90;;;;;;4978079;28;20166;-91
2023/10/09 13:59:27;;;;;;;30.45;28.40;;;15.40;94.90;;;;;;4976584;28;20230;-92
2023/10/09 14:01:56;;;;;;;30.75;28.75;;;15.50;94.90;;;;;;4976262;28;20206;-91
2023/10/09 14:04:23;;;;;;;31.10;29.02;;;15.60;94.90;;;;;;4976268;28;20730;-92
2023/10/09 14:06:56;;;;;;;29.75;27.65;;;15.60;94.90;;;;;;4976517;28;20189;-92
2023/10/09 14:09:32;;;;;;;31.08;29.02;;;15.60;94.80;;;;;;4977876;28;20155;-91
2023/10/09 14:12:06;;;;;;;30.58;28.67;;;15.50;94.80;;;;;;4976104;28;20181;-92
2023/10/09 14:14:40;;;;;;;28.85;27.05;;;15.50;94.90;;;;;;4975934;28;20201;-91
2023/10/09 14:17:13;;;;;;;29.00;27.13;;;15.60;95.00;;;;;;4976156;28;20182;-91
2023/10/09 14:19:40;;;;;;;27.35;25.45;;;15.70;95.00;;;;;;4976141;28;20185;-93
2023/10/09 14:22:07;;;;;;;27.08;24.92;;;15.70;95.00;;;;;;4976282;28;20210;-91
2023/10/09 14:24:34;;;;;;;27.27;25.45;;;15.80;95.10;;;;;;4975885;28;20202;-91
2023/10/09 14:27:04;;;;;;;27.73;26.00;;;15.80;95.10;;;;;;4975900;28;20178;-91
2023/10/09 14:29:30;;;;;;;28.05;26.33;;;15.70;95.10;;;;;;4975806;28;20178;-91
2023/10/09 14:32:02;;;;;;;27.95;25.85;;;15.70;95.10;;;;;;4976398;28;20661;-91
2023/10/09 14:34:39;;;;;;;25.77;23.98;;;15.70;95.20;;;;;;4975604;28;20289;-91
2023/10/09 14:37:06;;;;;;;24.85;23.15;;;15.70;95.30;;;;;;4975604;28;20224;-91
2023/10/09 14:39:36;;;;;;;32.60;30.50;;;15.70;95.20;;;;;;4977043;28;20171;-91
2023/10/09 14:42:09;;;;;;;30.63;28.10;;;15.70;95.20;;;;;;4976962;28;20277;-91
2023/10/09 14:44:37;;;;;;;30.60;28.25;;;15.70;95.30;;;;;;4976063;28;20298;-91
2023/10/09 14:47:07;;;;;;;28.70;26.45;;;15.70;95.30;;;;;;4975643;28;20198;-91
2023/10/09 14:49:37;;;;;;;29.02;27.13;;;15.70;95.30;;;;;;4975482;28;20201;-91
2023/10/09 14:52:03;;;;;;;30.33;28.00;;;15.70;95.30;;;;;;4978495;28;20171;-92
2023/10/09 14:54:28;;;;;;;28.48;26.58;;;15.70;95.40;;;;;;4977403;28;20210;-91
2023/10/09 14:56:54;;;;;;;29.13;27.00;;;15.70;95.40;;;;;;4978233;28;20182;-92
2023/10/09 14:59:22;;;;;;;29.52;27.33;;;15.70;95.40;;;;;;4977968;28;20175;-91
2023/10/09 15:01:50;;;;;;;21.00;19.30;;;15.70;95.50;;;;;;4977845;28;20737;-91
2023/10/09 15:04:15;;;;;;;20.35;18.70;;;15.70;95.50;;;;;;4976895;28;20195;-91
2023/10/09 15:06:41;;;;;;;27.38;25.33;;;15.70;95.50;;;;;;4978065;28;20175;-92
2023/10/09 15:09:21;;;;;;;28.30;26.42;;;15.70;95.50;;;;;;4975926;28;20229;-91
2023/10/09 15:11:48;;;;;;;33.25;30.90;;;15.70;95.50;;;;;;4975915;28;20182;-90
2023/10/09 15:14:13;;;;;;;20.75;19.00;;;15.70;95.50;;;;;;4976453;28;20206;-91
2023/10/09 15:16:39;;;;;;;22.08;20.25;;;15.70;95.50;;;;;;4974893;28;20185;-91
2023/10/09 15:19:05;;;;;;;26.55;24.70;;;15.70;95.50;;;;;;4975113;28;20187;-90
2023/10/09 15:21:33;;;;;;;26.50;24.80;;;15.70;95.50;;;;;;4974661;28;20198;-91
2023/10/09 15:23:59;;;;;;;19.52;17.88;;;15.70;95.50;;;;;;4974888;28;20206;-91
2023/10/09 15:26:25;;;;;;;18.90;17.48;;;15.70;95.40;;;;;;4974813;28;20669;-91
2023/10/09 15:28:53;;;;;;;18.48;16.90;;;15.60;95.40;;;;;;4974773;28;20183;-91
2023/10/09 15:31:21;;;;;;;18.00;16.50;;;15.60;95.40;;;;;;4974942;28;20638;-91
2023/10/09 15:33:50;;;;;;;16.73;15.43;;;15.60;95.30;;;;;;4975873;28;20177;-90